Flight Track Log - Related Links

Times and Time Zones

All times are in EDT time to prevent confusion due to time zone crossing. See the N442GJ flight status page for this flight to view local times or setup timezone preferences in your user account.

Time Position Orientation Groundspeed Altitude Reporting Facility
EDT Latitude Longitude Course Direction KTS MPH feet Rate Location/Type
Sat 11:03:37 PM 35.1636 -81.0181 232° Southwest 204 235 5,600  Level Atlanta Center
Sat 11:04:08 PM 35.1372 -81.0494 224° Southwest 227 261 7,200 2,769 Climbing Atlanta Center
Sat 11:05:08 PM 35.1142 -81.1264 250° West 251 289 9,800 2,150 Climbing Atlanta Center
Sat 11:06:08 PM 35.1203 -81.2125 275° West 263 303 11,500 1,900 Climbing Atlanta Center
Sat 11:07:08 PM 35.1308 -81.3139 277° West 293 337 13,600 2,100 Climbing Atlanta Center
Sat 11:08:08 PM 35.1417 -81.4225 277° West 316 364 15,700 1,200 Climbing Atlanta Center
Sat 11:09:08 PM 35.1461 -81.5419 273° West 341 392 16,000 150 Climbing Atlanta Center
Sat 11:10:08 PM 35.1364 -81.6742 265° West 354 407 16,000  Level Atlanta Center
Sat 11:11:08 PM 35.1242 -81.8017 263° West 367 422 16,000  Level Atlanta Center
Sat 11:12:08 PM 35.1181 -81.9236 267° West 372 428 16,000  Level Atlanta Center
Sat 11:13:08 PM 35.1075 -82.0458 264° West 367 422 16,000  Level Atlanta Center
Sat 11:14:08 PM 35.0569 -82.1536 240° Southwest 357 411 16,000  Level Atlanta Center
Sat 11:15:08 PM 34.9958 -82.2539 233° Southwest 368 423 16,000  Level Atlanta Center
Sat 11:16:08 PM 34.9428 -82.3386 233° Southwest 368 423 16,000  Level Atlanta Center
Sat 11:17:08 PM 34.8775 -82.4514 235° Southwest 368 423 16,000  Level Atlanta Center
Sat 11:18:08 PM 34.8206 -82.5561 237° Southwest 368 423 16,000  Level Atlanta Center
Sat 11:19:09 PM 34.7611 -82.6533 233° Southwest 368 423 16,000  Level Atlanta Center
Sat 11:20:08 PM 34.7036 -82.7528 235° Southwest 368 423 16,000  Level Atlanta Center
Sat 11:21:08 PM 34.6400 -82.8419 229° Southwest 368 423 16,000 -150 Level Atlanta Center
Sat 11:22:08 PM 34.5867 -82.9464 238° Southwest 373 429 15,700 -750 Descending Atlanta Center
Sat 11:23:08 PM 34.5208 -83.0506 233° Southwest 386 444 14,500 -1,250 Descending Atlanta Center
Sat 11:24:08 PM 34.4569 -83.1544 233° Southwest 386 444 13,200 -750 Descending Atlanta Center
Sat 11:25:08 PM 34.4011 -83.2608 238° Southwest 391 450 13,000 -250 Descending Atlanta Center
Sat 11:26:08 PM 34.3372 -83.3619 233° Southwest 381 438 12,700 -1,100 Descending Atlanta Center
Sat 11:27:08 PM 34.2731 -83.4656 233° Southwest 381 438 10,800 -1,750 Descending Atlanta Center
Sat 11:28:08 PM 34.2233 -83.5489 234° Southwest 342 394 9,200 -1,500 Descending Atlanta Center
Sat 11:29:08 PM 34.1817 -83.6169 234° Southwest 288 331 7,800 -1,300 Descending Atlanta Center
Sat 11:30:08 PM 34.1464 -83.6772 235° Southwest 249 287 6,600 -1,200 Descending Atlanta Center
Sat 11:31:08 PM 34.1089 -83.7328 231° Southwest 230 265 5,400 -1,150 Descending Atlanta Center
Sat 11:32:08 PM 34.0736 -83.7906 234° Southwest 221 254 4,300 -1,100 Descending Atlanta Center

Login

Don't have an account? Register now (free) for customized features, flight alerts, and more!